createdAt,value
2018-04-02T04:00:43.335Z,1005.41
2018-04-02T04:01:08.829Z,1005.41
2018-04-02T04:01:34.331Z,1005.45
2018-04-02T04:01:59.823Z,1005.41
2018-04-02T04:02:25.309Z,1005.43
2018-04-02T04:02:50.807Z,1005.45
2018-04-02T04:03:16.314Z,1005.41
2018-04-02T04:03:41.808Z,1005.4
2018-04-02T04:04:07.294Z,1005.43
2018-04-02T04:04:32.761Z,1005.43
2018-04-02T04:04:58.240Z,1005.43
2018-04-02T04:06:06.947Z,1005.42
2018-04-02T04:06:32.464Z,1005.43
2018-04-02T04:06:57.945Z,1005.44
2018-04-02T04:07:23.438Z,1005.45
2018-04-02T04:07:48.926Z,1005.42
2018-04-02T04:08:14.425Z,1005.43
2018-04-02T04:08:39.880Z,1005.42
2018-04-02T04:09:05.354Z,1005.43
2018-04-02T04:09:30.830Z,1005.42
2018-04-02T04:09:56.325Z,1005.4
2018-04-02T04:10:21.837Z,1005.41
2018-04-02T04:10:47.281Z,1005.43
2018-04-02T04:11:12.777Z,1005.42
2018-04-02T04:11:38.257Z,1005.41
2018-04-02T04:12:03.736Z,1005.46
2018-04-02T04:12:29.225Z,1005.46
2018-04-02T04:12:54.698Z,1005.43
2018-04-02T04:13:20.179Z,1005.46
2018-04-02T04:13:45.676Z,1005.44
2018-04-02T04:14:11.143Z,1005.44
2018-04-02T04:14:36.657Z,1005.42
2018-04-02T04:15:02.153Z,1005.43
2018-04-02T04:15:27.656Z,1005.43
2018-04-02T04:15:53.158Z,1005.47
2018-04-02T04:16:18.631Z,1005.44
2018-04-02T04:16:44.147Z,1005.44
2018-04-02T04:17:09.604Z,1005.43
2018-04-02T04:17:35.099Z,1005.45
2018-04-02T04:18:00.620Z,1005.43
2018-04-02T04:18:26.135Z,1005.46
2018-04-02T04:18:51.597Z,1005.41
2018-04-02T04:19:17.111Z,1005.42
2018-04-02T04:19:42.586Z,1005.45
2018-04-02T04:20:08.065Z,1005.45
2018-04-02T04:20:33.526Z,1005.47
2018-04-02T04:20:59.057Z,1005.41
2018-04-02T04:21:24.439Z,1005.4
2018-04-02T04:21:49.952Z,1005.46
2018-04-02T04:22:15.430Z,1005.46
2018-04-02T04:22:40.937Z,1005.45
2018-04-02T04:23:06.421Z,1005.46
2018-04-02T04:23:31.893Z,1005.47
2018-04-02T04:23:57.390Z,1005.45
2018-04-02T04:24:22.865Z,1005.45
2018-04-02T04:24:48.322Z,1005.49
2018-04-02T04:25:13.843Z,1005.46
2018-04-02T04:25:39.306Z,1005.46
2018-04-02T04:26:04.802Z,1005.44
2018-04-02T04:26:30.263Z,1005.45
2018-04-02T04:26:55.773Z,1005.45
2018-04-02T04:27:21.252Z,1005.46
2018-04-02T04:27:46.763Z,1005.47
2018-04-02T04:28:12.221Z,1005.44
2018-04-02T04:28:37.675Z,1005.41
2018-04-02T04:29:03.146Z,1005.41
2018-04-02T04:29:28.632Z,1005.43
2018-04-02T04:29:54.146Z,1005.43
2018-04-02T04:30:19.620Z,1005.43
2018-04-02T04:30:45.152Z,1005.42
2018-04-02T04:31:10.674Z,1005.47
2018-04-02T04:31:36.158Z,1005.43
2018-04-02T04:32:01.645Z,1005.41
2018-04-02T04:32:27.099Z,1005.43
2018-04-02T04:32:52.607Z,1005.43
2018-04-02T04:33:18.074Z,1005.4
2018-04-02T04:33:43.592Z,1005.4
2018-04-02T04:34:09.055Z,1005.4
2018-04-02T04:34:34.509Z,1005.35
2018-04-02T04:35:00.011Z,1005.34
2018-04-02T04:35:25.481Z,1005.38
2018-04-02T04:35:50.956Z,1005.35
2018-04-02T04:36:16.457Z,1005.35
2018-04-02T04:36:41.949Z,1005.37
2018-04-02T04:37:07.426Z,1005.37
2018-04-02T04:37:32.896Z,1005.39
2018-04-02T04:37:58.387Z,1005.33
2018-04-02T04:38:23.876Z,1005.35
2018-04-02T04:38:49.379Z,1005.36
2018-04-02T04:39:14.872Z,1005.37
2018-04-02T04:39:40.325Z,1005.35
2018-04-02T04:40:05.833Z,1005.35
2018-04-02T04:40:31.350Z,1005.37
2018-04-02T04:40:56.800Z,1005.37
2018-04-02T04:42:15.734Z,1005.35
2018-04-02T04:42:41.202Z,1005.39
2018-04-02T04:43:06.702Z,1005.34
2018-04-02T04:43:32.174Z,1005.33
2018-04-02T04:43:57.678Z,1005.33
2018-04-02T04:44:23.142Z,1005.31
2018-04-02T04:44:48.612Z,1005.34
2018-04-02T04:45:47.121Z,1005.32
2018-04-02T04:46:12.610Z,1005.35
2018-04-02T04:46:38.120Z,1005.31
2018-04-02T04:47:03.616Z,1005.29
2018-04-02T04:47:29.086Z,1005.28
2018-04-02T04:47:54.560Z,1005.29
2018-04-02T04:49:13.547Z,1005.33
2018-04-02T04:49:39.033Z,1005.3
2018-04-02T04:50:04.527Z,1005.29
2018-04-02T04:50:30.004Z,1005.28
2018-04-02T04:50:55.515Z,1005.28
2018-04-02T04:51:21.018Z,1005.29
2018-04-02T04:51:46.495Z,1005.26
2018-04-02T04:52:12.012Z,1005.24
2018-04-02T04:52:37.459Z,1005.3
2018-04-02T04:53:02.980Z,1005.26
2018-04-02T04:53:28.456Z,1005.28
2018-04-02T04:53:53.935Z,1005.26
2018-04-02T04:54:19.383Z,1005.26
2018-04-02T04:54:44.837Z,1005.24
2018-04-02T04:55:10.338Z,1005.23
2018-04-02T04:55:35.902Z,1005.26
2018-04-02T04:56:01.420Z,1005.24
2018-04-02T04:56:26.882Z,1005.23
2018-04-02T04:56:52.339Z,1005.23
2018-04-02T04:57:17.828Z,1005.24
2018-04-02T04:57:43.368Z,1005.25
2018-04-02T04:58:08.898Z,1005.21
2018-04-02T04:59:22.756Z,1005.22
2018-04-02T04:59:48.186Z,1005.22
2018-04-02T05:00:13.661Z,1005.21
2018-04-02T05:00:39.181Z,1005.24
2018-04-02T05:01:04.676Z,1005.22
2018-04-02T05:01:30.138Z,1005.2
2018-04-02T05:01:55.639Z,1005.2
2018-04-02T05:02:21.119Z,1005.21
2018-04-02T05:02:46.597Z,1005.25
2018-04-02T05:03:12.087Z,1005.25
2018-04-02T05:03:37.577Z,1005.26
2018-04-02T05:04:03.076Z,1005.23
2018-04-02T05:04:28.533Z,1005.26
2018-04-02T05:04:54.060Z,1005.28
2018-04-02T05:05:19.528Z,1005.23
2018-04-02T05:05:45.027Z,1005.3
2018-04-02T05:06:10.503Z,1005.26
2018-04-02T05:06:35.986Z,1005.25
2018-04-02T05:07:01.458Z,1005.25
2018-04-02T05:07:26.917Z,1005.28
2018-04-02T05:07:52.422Z,1005.28
2018-04-02T05:08:17.882Z,1005.28
2018-04-02T05:08:43.396Z,1005.25
2018-04-02T05:09:08.867Z,1005.28
2018-04-02T05:09:34.356Z,1005.27
2018-04-02T05:09:59.873Z,1005.24
2018-04-02T05:10:25.386Z,1005.26
2018-04-02T05:10:50.881Z,1005.29
2018-04-02T05:11:16.346Z,1005.24
2018-04-02T05:11:41.842Z,1005.22
2018-04-02T05:12:07.326Z,1005.23
2018-04-02T05:12:32.773Z,1005.23
2018-04-02T05:12:58.274Z,1005.23
2018-04-02T05:13:23.765Z,1005.27
2018-04-02T05:13:49.225Z,1005.26
2018-04-02T05:14:14.697Z,1005.27
2018-04-02T05:14:40.194Z,1005.2
2018-04-02T05:15:05.682Z,1005.18
2018-04-02T05:15:31.189Z,1005.17
2018-04-02T05:15:56.695Z,1005.19
2018-04-02T05:16:22.170Z,1005.18
2018-04-02T05:16:47.693Z,1005.18
2018-04-02T05:17:13.156Z,1005.19
2018-04-02T05:17:38.650Z,1005.18
2018-04-02T05:18:04.099Z,1005.18
2018-04-02T05:18:29.586Z,1005.22
2018-04-02T05:18:55.089Z,1005.21
2018-04-02T05:19:20.578Z,1005.22
2018-04-02T05:19:46.052Z,1005.24
2018-04-02T05:20:11.576Z,1005.24
2018-04-02T05:20:37.076Z,1005.24
2018-04-02T05:21:02.544Z,1005.22
2018-04-02T05:21:28.054Z,1005.28
2018-04-02T05:21:53.559Z,1005.22
2018-04-02T05:22:19.067Z,1005.21
2018-04-02T05:22:44.597Z,1005.22
2018-04-02T05:23:10.050Z,1005.2
2018-04-02T05:23:35.551Z,1005.26
2018-04-02T05:24:01.057Z,1005.23
2018-04-02T05:24:26.560Z,1005.21
2018-04-02T05:24:52.037Z,1005.19
2018-04-02T05:25:17.540Z,1005.22
2018-04-02T05:25:43.020Z,1005.27
2018-04-02T05:26:08.514Z,1005.23
2018-04-02T05:26:34.018Z,1005.24
2018-04-02T05:26:59.522Z,1005.21
2018-04-02T05:27:25.030Z,1005.24
2018-04-02T05:27:50.537Z,1005.24
2018-04-02T05:28:16.030Z,1005.21
2018-04-02T05:28:41.512Z,1005.27
2018-04-02T05:29:07.056Z,1005.29
2018-04-02T05:29:32.554Z,1005.2
2018-04-02T05:29:58.026Z,1005.24
2018-04-02T05:30:23.518Z,1005.22
2018-04-02T05:30:49.015Z,1005.21
2018-04-02T05:31:14.528Z,1005.18
2018-04-02T05:31:40.005Z,1005.18
2018-04-02T05:32:43.600Z,1005.2
2018-04-02T05:33:09.106Z,1005.17
2018-04-02T05:33:34.594Z,1005.14
2018-04-02T05:34:00.054Z,1005.16
2018-04-02T05:34:25.591Z,1005.14
2018-04-02T05:34:51.002Z,1005.15
2018-04-02T05:35:16.489Z,1005.16
2018-04-02T05:35:41.965Z,1005.18
2018-04-02T05:36:07.440Z,1005.17
2018-04-02T05:36:32.933Z,1005.19
2018-04-02T05:36:58.431Z,1005.16
2018-04-02T05:37:23.894Z,1005.17
2018-04-02T05:37:49.379Z,1005.17
2018-04-02T05:38:14.843Z,1005.16
2018-04-02T05:38:40.358Z,1005.19
2018-04-02T05:39:05.851Z,1005.18
2018-04-02T05:39:31.344Z,1005.17
2018-04-02T05:39:56.839Z,1005.2
2018-04-02T05:40:22.324Z,1005.13
2018-04-02T05:40:47.881Z,1005.17
2018-04-02T05:41:13.386Z,1005.16
2018-04-02T05:41:38.904Z,1005.15
2018-04-02T05:42:04.413Z,1005.14
2018-04-02T05:42:29.892Z,1005.19
2018-04-02T05:42:55.371Z,1005.15
2018-04-02T05:43:20.850Z,1005.14
2018-04-02T05:43:46.347Z,1005.16
2018-04-02T05:44:11.810Z,1005.17
2018-04-02T05:44:37.320Z,1005.17
2018-04-02T05:45:02.792Z,1005.17
2018-04-02T05:45:28.298Z,1005.18
2018-04-02T05:45:53.773Z,1005.19
2018-04-02T05:46:19.255Z,1005.17
2018-04-02T05:46:44.744Z,1005.16
2018-04-02T05:47:10.219Z,1005.16
2018-04-02T05:47:35.680Z,1005.15
2018-04-02T05:48:01.179Z,1005.15
2018-04-02T05:48:26.678Z,1005.16
2018-04-02T05:48:52.173Z,1005.13
2018-04-02T05:49:17.674Z,1005.18
2018-04-02T05:49:43.157Z,1005.15
2018-04-02T05:50:08.646Z,1005.16
2018-04-02T05:50:34.110Z,1005.12
2018-04-02T05:50:59.651Z,1005.13
2018-04-02T05:51:25.093Z,1005.14
2018-04-02T05:51:50.576Z,1005.13
2018-04-02T05:52:16.054Z,1005.15
2018-04-02T05:52:41.554Z,1005.12
2018-04-02T05:53:07.058Z,1005.11
2018-04-02T05:53:32.590Z,1005.11
2018-04-02T05:53:58.092Z,1005.11
2018-04-02T05:54:23.585Z,1005.15
2018-04-02T05:54:49.085Z,1005.17
2018-04-02T05:55:14.573Z,1005.16
2018-04-02T05:56:33.512Z,1005.18
2018-04-02T05:56:59.021Z,1005.15
2018-04-02T05:57:24.534Z,1005.14
2018-04-02T05:57:50.003Z,1005.12
2018-04-02T05:58:15.464Z,1005.12
2018-04-02T05:58:40.924Z,1005.1
2018-04-02T05:59:06.388Z,1005.13
2018-04-02T05:59:31.869Z,1005.14
2018-04-02T05:59:57.357Z,1005.1
2018-04-02T06:00:22.826Z,1005.12
2018-04-02T06:00:48.301Z,1005.15
2018-04-02T06:01:13.745Z,1005.16
2018-04-02T06:01:39.214Z,1005.12
2018-04-02T06:02:04.715Z,1005.11
2018-04-02T06:02:30.165Z,1005.12
2018-04-02T06:02:55.654Z,1005.11
2018-04-02T06:03:21.140Z,1005.12
2018-04-02T06:03:46.654Z,1005.12
2018-04-02T06:04:12.131Z,1005.13
2018-04-02T06:04:37.576Z,1005.08
2018-04-02T06:05:03.074Z,1005.11
2018-04-02T06:05:28.558Z,1005.1
2018-04-02T06:05:54.042Z,1005.14
2018-04-02T06:06:19.553Z,1005.11
2018-04-02T06:06:45.052Z,1005.14
2018-04-02T06:07:10.497Z,1005.1
2018-04-02T06:07:35.972Z,1005.11
2018-04-02T06:08:01.494Z,1005.11
2018-04-02T06:08:26.978Z,1005.14
2018-04-02T06:08:52.506Z,1005.11
2018-04-02T06:09:17.967Z,1005.16
2018-04-02T06:09:43.438Z,1005.16
2018-04-02T06:10:08.919Z,1005.12
2018-04-02T06:10:34.462Z,1005.14
2018-04-02T06:11:00.547Z,1005.16
2018-04-02T06:11:25.409Z,1005.15
2018-04-02T06:11:50.923Z,1005.13
2018-04-02T06:12:16.426Z,1005.12
2018-04-02T06:12:41.929Z,1005.13
2018-04-02T06:13:07.398Z,1005.06
2018-04-02T06:13:32.885Z,1005.05
2018-04-02T06:13:58.369Z,1005.04
2018-04-02T06:14:23.833Z,1005.02
2018-04-02T06:14:49.328Z,1005
2018-04-02T06:15:14.784Z,1005.01
2018-04-02T06:15:40.278Z,1004.99
2018-04-02T06:16:05.780Z,1005
2018-04-02T06:16:31.269Z,1004.98
2018-04-02T06:16:56.748Z,1004.96
2018-04-02T06:17:22.239Z,1004.93
2018-04-02T06:17:47.734Z,1004.94
2018-04-02T06:18:13.201Z,1004.96
2018-04-02T06:18:38.748Z,1004.93
2018-04-02T06:19:04.256Z,1004.89
2018-04-02T06:19:29.753Z,1004.9
2018-04-02T06:19:55.242Z,1004.89
2018-04-02T06:20:20.736Z,1004.9
2018-04-02T06:20:46.265Z,1004.84
2018-04-02T06:21:11.770Z,1004.87
2018-04-02T06:21:37.257Z,1004.91
2018-04-02T06:22:02.723Z,1004.89
2018-04-02T06:22:28.314Z,1004.88
2018-04-02T06:22:53.766Z,1004.87
2018-04-02T06:23:19.270Z,1004.88
2018-04-02T06:23:44.746Z,1004.87
2018-04-02T06:24:10.204Z,1004.88
2018-04-02T06:24:35.744Z,1004.9
2018-04-02T06:25:01.251Z,1004.9
2018-04-02T06:25:26.727Z,1004.86
2018-04-02T06:25:52.220Z,1004.9
2018-04-02T06:26:17.704Z,1004.87
2018-04-02T06:26:43.152Z,1004.88
2018-04-02T06:27:08.667Z,1004.86
2018-04-02T06:27:34.159Z,1004.88
2018-04-02T06:27:59.648Z,1004.84
2018-04-02T06:28:25.113Z,1004.88
2018-04-02T06:28:50.596Z,1004.9
2018-04-02T06:29:16.117Z,1004.85
2018-04-02T06:29:41.629Z,1004.88
2018-04-02T06:30:07.113Z,1004.86
2018-04-02T06:30:32.607Z,1004.9
2018-04-02T06:30:58.126Z,1004.93
2018-04-02T06:31:23.611Z,1004.92
2018-04-02T06:31:49.102Z,1004.86
2018-04-02T06:32:14.592Z,1004.87
2018-04-02T06:32:40.111Z,1004.87
2018-04-02T06:33:05.606Z,1004.92
2018-04-02T06:33:31.128Z,1004.88
2018-04-02T06:33:56.586Z,1004.86
2018-04-02T06:34:22.080Z,1004.86
2018-04-02T06:34:47.613Z,1004.85
2018-04-02T06:35:13.079Z,1004.86
2018-04-02T06:35:38.570Z,1004.86
2018-04-02T06:36:04.098Z,1004.83
2018-04-02T06:36:29.609Z,1004.85
2018-04-02T06:36:55.114Z,1004.87
2018-04-02T06:37:20.566Z,1004.84
2018-04-02T06:37:46.040Z,1004.82
2018-04-02T06:38:11.528Z,1004.79
2018-04-02T06:38:37.023Z,1004.78
2018-04-02T06:39:02.484Z,1004.76
2018-04-02T06:39:28.015Z,1004.8
2018-04-02T06:39:53.481Z,1004.8
2018-04-02T06:40:19.009Z,1004.78
2018-04-02T06:40:44.512Z,1004.81
2018-04-02T06:41:09.979Z,1004.81
2018-04-02T06:41:35.495Z,1004.85
2018-04-02T06:42:00.940Z,1004.81
2018-04-02T06:42:26.574Z,1004.81
2018-04-02T06:42:52.093Z,1004.81
2018-04-02T06:43:17.608Z,1004.81
2018-04-02T06:43:43.148Z,1004.79
2018-04-02T06:44:08.618Z,1004.79
2018-04-02T06:44:34.089Z,1004.81
2018-04-02T06:44:59.558Z,1004.82
2018-04-02T06:45:25.066Z,1004.78
2018-04-02T06:46:28.651Z,1004.77
2018-04-02T06:46:54.136Z,1004.78
2018-04-02T06:47:19.649Z,1004.75
2018-04-02T06:47:45.181Z,1004.78
2018-04-02T06:48:10.677Z,1004.77
2018-04-02T06:48:36.118Z,1004.78
2018-04-02T06:49:01.596Z,1004.75
2018-04-02T06:49:27.104Z,1004.75
2018-04-02T06:49:52.561Z,1004.76
2018-04-02T06:50:18.056Z,1004.78
2018-04-02T06:50:43.573Z,1004.79
2018-04-02T06:51:09.041Z,1004.77
2018-04-02T06:51:34.522Z,1004.8
2018-04-02T06:52:00.035Z,1004.79
2018-04-02T06:52:25.509Z,1004.76
2018-04-02T06:52:51.013Z,1004.78
2018-04-02T06:53:16.442Z,1004.78
2018-04-02T06:53:41.939Z,1004.77
2018-04-02T06:54:07.427Z,1004.73
2018-04-02T06:55:16.119Z,1004.75
2018-04-02T06:55:41.614Z,1004.74
2018-04-02T06:56:07.109Z,1004.75
2018-04-02T06:56:32.601Z,1004.76
2018-04-02T06:56:58.088Z,1004.71
2018-04-02T06:57:23.560Z,1004.74
2018-04-02T06:57:49.036Z,1004.77
2018-04-02T06:58:14.535Z,1004.76
2018-04-02T06:58:39.996Z,1004.84
2018-04-02T06:59:05.472Z,1004.82
2018-04-02T06:59:30.978Z,1004.79
2018-04-02T06:59:56.462Z,1004.8
2018-04-02T07:00:21.942Z,1004.77
2018-04-02T07:00:47.427Z,1004.77
2018-04-02T07:01:12.898Z,1004.81
2018-04-02T07:01:38.368Z,1004.77
2018-04-02T07:02:03.866Z,1004.77
2018-04-02T07:02:29.341Z,1004.79
2018-04-02T07:02:54.845Z,1004.74
2018-04-02T07:03:20.336Z,1004.74
2018-04-02T07:03:45.807Z,1004.74
2018-04-02T07:04:11.301Z,1004.73
2018-04-02T07:04:36.819Z,1004.78
2018-04-02T07:05:02.327Z,1004.71
2018-04-02T07:05:27.778Z,1004.78
2018-04-02T07:06:41.609Z,1004.7
2018-04-02T07:07:07.082Z,1004.75
2018-04-02T07:07:32.581Z,1004.71
2018-04-02T07:07:58.072Z,1004.75
2018-04-02T07:08:23.549Z,1004.78
2018-04-02T07:08:49.055Z,1004.77
2018-04-02T07:09:14.529Z,1004.74
2018-04-02T07:09:40.028Z,1004.75
2018-04-02T07:10:05.459Z,1004.74
2018-04-02T07:10:30.949Z,1004.76
2018-04-02T07:10:56.462Z,1004.74
2018-04-02T07:11:21.950Z,1004.73
2018-04-02T07:11:47.431Z,1004.71
2018-04-02T07:12:12.960Z,1004.71
2018-04-02T07:12:38.448Z,1004.73
2018-04-02T07:13:03.933Z,1004.71
2018-04-02T07:13:29.433Z,1004.75
2018-04-02T07:13:54.911Z,1004.73
2018-04-02T07:14:20.380Z,1004.71
2018-04-02T07:14:45.891Z,1004.7
2018-04-02T07:15:11.405Z,1004.73
2018-04-02T07:15:36.872Z,1004.7
2018-04-02T07:16:02.399Z,1004.72
2018-04-02T07:16:27.864Z,1004.7
2018-04-02T07:17:46.770Z,1004.69
2018-04-02T07:18:12.251Z,1004.71
2018-04-02T07:18:37.765Z,1004.73
2018-04-02T07:19:03.276Z,1004.65
2018-04-02T07:19:28.766Z,1004.7
2018-04-02T07:19:54.254Z,1004.7
2018-04-02T07:20:19.763Z,1004.69
2018-04-02T07:20:45.289Z,1004.69
2018-04-02T07:21:10.721Z,1004.71
2018-04-02T07:21:36.227Z,1004.71
2018-04-02T07:22:01.732Z,1004.7
2018-04-02T07:22:27.207Z,1004.63
2018-04-02T07:22:52.903Z,1004.69
2018-04-02T07:23:18.813Z,1004.68
2018-04-02T07:23:44.393Z,1004.69
2018-04-02T07:24:10.024Z,1004.67
2018-04-02T07:24:35.487Z,1004.67
2018-04-02T07:25:00.938Z,1004.65
2018-04-02T07:25:26.439Z,1004.71
2018-04-02T07:25:52.049Z,1004.68
2018-04-02T07:26:17.496Z,1004.68
2018-04-02T07:26:42.979Z,1004.66
2018-04-02T07:27:08.468Z,1004.66
2018-04-02T07:27:33.929Z,1004.66
2018-04-02T07:27:59.437Z,1004.64
2018-04-02T07:28:24.938Z,1004.65
2018-04-02T07:28:50.410Z,1004.65
2018-04-02T07:29:15.930Z,1004.65
2018-04-02T07:29:41.413Z,1004.6
2018-04-02T07:30:06.901Z,1004.59
2018-04-02T07:30:32.403Z,1004.64
2018-04-02T07:30:57.904Z,1004.64
2018-04-02T07:31:23.388Z,1004.67
2018-04-02T07:31:48.972Z,1004.64
2018-04-02T07:32:14.429Z,1004.63
2018-04-02T07:32:40.024Z,1004.72
2018-04-02T07:33:05.540Z,1004.64
2018-04-02T07:33:31.149Z,1004.62
2018-04-02T07:33:56.482Z,1004.65
2018-04-02T07:34:21.955Z,1004.65
2018-04-02T07:34:47.438Z,1004.61
2018-04-02T07:35:12.947Z,1004.63
2018-04-02T07:36:11.497Z,1004.67
2018-04-02T07:36:37.009Z,1004.63
2018-04-02T07:37:02.502Z,1004.62
2018-04-02T07:37:28.075Z,1004.64
2018-04-02T07:37:53.625Z,1004.65
2018-04-02T07:38:19.129Z,1004.61
2018-04-02T07:38:44.662Z,1004.61
2018-04-02T07:39:10.172Z,1004.6
2018-04-02T07:39:35.696Z,1004.58
2018-04-02T07:40:01.167Z,1004.56
2018-04-02T07:40:26.642Z,1004.53
2018-04-02T07:40:52.131Z,1004.51
2018-04-02T07:41:17.613Z,1004.49
2018-04-02T07:41:43.072Z,1004.51
2018-04-02T07:42:08.580Z,1004.53
2018-04-02T07:42:34.061Z,1004.46
2018-04-02T07:42:59.547Z,1004.46
2018-04-02T07:43:25.093Z,1004.49
2018-04-02T07:44:28.727Z,1004.47
2018-04-02T07:44:54.220Z,1004.46
2018-04-02T07:45:19.691Z,1004.39
2018-04-02T07:45:45.177Z,1004.43
2018-04-02T07:46:10.682Z,1004.41
2018-04-02T07:46:36.165Z,1004.42
2018-04-02T07:47:01.727Z,1004.43
2018-04-02T07:47:27.197Z,1004.42
2018-04-02T07:47:52.704Z,1004.39
2018-04-02T07:48:18.201Z,1004.37
2018-04-02T07:48:43.687Z,1004.4
2018-04-02T07:49:09.198Z,1004.4
2018-04-02T07:49:34.740Z,1004.41
2018-04-02T07:50:00.211Z,1004.39
2018-04-02T07:50:25.699Z,1004.38
2018-04-02T07:50:51.154Z,1004.41
2018-04-02T07:51:16.675Z,1004.37
2018-04-02T07:51:42.190Z,1004.39
2018-04-02T07:52:07.665Z,1004.37
2018-04-02T07:52:33.174Z,1004.41
2018-04-02T07:52:58.626Z,1004.37
2018-04-02T07:53:24.112Z,1004.37
2018-04-02T07:53:49.584Z,1004.4
2018-04-02T07:54:15.108Z,1004.39
2018-04-02T07:54:40.638Z,1004.35
2018-04-02T07:55:06.108Z,1004.35
2018-04-02T07:55:31.568Z,1004.36
2018-04-02T07:55:57.099Z,1004.44
2018-04-02T07:56:22.572Z,1004.4
2018-04-02T07:56:48.049Z,1004.35
2018-04-02T07:57:13.543Z,1004.42
2018-04-02T07:57:39.009Z,1004.45
2018-04-02T07:58:04.485Z,1004.43
2018-04-02T07:58:29.980Z,1004.42
2018-04-02T07:58:55.495Z,1004.44
2018-04-02T07:59:21.011Z,1004.38
2018-04-02T07:59:46.538Z,1004.43
2018-04-02T08:00:11.999Z,1004.37
2018-04-02T08:00:37.485Z,1004.45
2018-04-02T08:01:02.942Z,1004.42
2018-04-02T08:01:28.467Z,1004.41
2018-04-02T08:01:53.951Z,1004.44
2018-04-02T08:02:19.450Z,1004.47
2018-04-02T08:02:45.006Z,1004.39
2018-04-02T08:03:10.441Z,1004.43
2018-04-02T08:03:35.957Z,1004.41
2018-04-02T08:04:01.464Z,1004.39
2018-04-02T08:04:26.903Z,1004.4
2018-04-02T08:04:52.354Z,1004.39
2018-04-02T08:05:17.819Z,1004.38
2018-04-02T08:05:43.311Z,1004.4
2018-04-02T08:06:08.815Z,1004.35
2018-04-02T08:06:34.329Z,1004.32
2018-04-02T08:06:59.858Z,1004.31
2018-04-02T08:07:25.405Z,1004.35
2018-04-02T08:07:50.851Z,1004.35
2018-04-02T08:08:16.348Z,1004.35
2018-04-02T08:08:41.919Z,1004.32
2018-04-02T08:09:07.377Z,1004.33
2018-04-02T08:09:32.884Z,1004.33
2018-04-02T08:09:58.437Z,1004.37
2018-04-02T08:10:24.199Z,1004.31
2018-04-02T08:10:49.682Z,1004.32
2018-04-02T08:11:15.143Z,1004.36
2018-04-02T08:11:40.658Z,1004.34
2018-04-02T08:12:06.166Z,1004.34
2018-04-02T08:12:31.682Z,1004.36
2018-04-02T08:13:50.641Z,1004.33
2018-04-02T08:14:16.123Z,1004.34
2018-04-02T08:14:41.600Z,1004.33
2018-04-02T08:15:07.103Z,1004.35
2018-04-02T08:15:32.604Z,1004.31
2018-04-02T08:15:58.095Z,1004.29
2018-04-02T08:16:23.579Z,1004.23
2018-04-02T08:16:49.083Z,1004.32
2018-04-02T08:17:14.595Z,1004.25
2018-04-02T08:17:40.090Z,1004.26
2018-04-02T08:18:05.654Z,1004.25
2018-04-02T08:18:31.076Z,1004.25
2018-04-02T08:18:56.540Z,1004.22
2018-04-02T08:19:22.015Z,1004.23
2018-04-02T08:19:47.512Z,1004.21
2018-04-02T08:20:12.988Z,1004.26
2018-04-02T08:20:38.472Z,1004.21
2018-04-02T08:21:03.940Z,1004.23
2018-04-02T08:21:29.418Z,1004.22
2018-04-02T08:21:54.894Z,1004.17
2018-04-02T08:22:20.389Z,1004.22
2018-04-02T08:22:45.883Z,1004.21
2018-04-02T08:23:54.562Z,1004.22
2018-04-02T08:24:20.047Z,1004.18
2018-04-02T08:24:45.526Z,1004.15
2018-04-02T08:25:10.996Z,1004.2
2018-04-02T08:25:36.470Z,1004.21
2018-04-02T08:26:01.979Z,1004.17
2018-04-02T08:26:27.444Z,1004.19
2018-04-02T08:26:52.912Z,1004.14
2018-04-02T08:27:18.412Z,1004.2
2018-04-02T08:27:43.887Z,1004.15
2018-04-02T08:28:09.370Z,1004.13
2018-04-02T08:28:34.877Z,1004.13
2018-04-02T08:29:00.419Z,1004.12
2018-04-02T08:29:25.905Z,1004.14
2018-04-02T08:29:51.402Z,1004.1
2018-04-02T08:30:16.942Z,1004.12
2018-04-02T08:30:42.451Z,1004.14
2018-04-02T08:31:07.931Z,1004.11
2018-04-02T08:31:33.416Z,1004.1
2018-04-02T08:31:58.899Z,1004.09
2018-04-02T08:32:24.398Z,1004.08
2018-04-02T08:32:49.838Z,1004.1
2018-04-02T08:33:15.341Z,1004.11
2018-04-02T08:33:40.809Z,1004.1
2018-04-02T08:34:06.292Z,1004.09
2018-04-02T08:34:31.757Z,1004.06
2018-04-02T08:34:57.262Z,1004.09
2018-04-02T08:35:22.727Z,1004.04
2018-04-02T08:35:48.185Z,1004.06
2018-04-02T08:36:13.680Z,1004.03
2018-04-02T08:36:39.156Z,1004.01
2018-04-02T08:37:04.615Z,1004.06
2018-04-02T08:37:30.114Z,1004.02
2018-04-02T08:37:55.591Z,1004.04
2018-04-02T08:38:21.078Z,1004.04
2018-04-02T08:38:46.644Z,1004.02
2018-04-02T08:39:12.113Z,1004.03
2018-04-02T08:39:37.602Z,1004.03
2018-04-02T08:40:03.116Z,1004.05
2018-04-02T08:40:28.607Z,1004.05
2018-04-02T08:40:54.107Z,1004.02
2018-04-02T08:41:19.619Z,1004.03
2018-04-02T08:41:45.125Z,1004.04
2018-04-02T08:42:10.608Z,1004.06
2018-04-02T08:42:36.118Z,1003.99
2018-04-02T08:43:01.606Z,1004.01
2018-04-02T08:43:27.088Z,1003.95
2018-04-02T08:43:52.549Z,1004.03
2018-04-02T08:44:18.069Z,1003.98
2018-04-02T08:44:43.541Z,1004.01
2018-04-02T08:45:09.047Z,1003.99
2018-04-02T08:45:34.553Z,1004.01
2018-04-02T08:46:00.029Z,1003.97
2018-04-02T08:46:25.521Z,1004.01
2018-04-02T08:46:50.983Z,1003.99
2018-04-02T08:47:16.488Z,1003.98
2018-04-02T08:47:42.022Z,1003.99
2018-04-02T08:48:07.530Z,1003.94
2018-04-02T08:48:33.019Z,1003.97
2018-04-02T08:48:58.495Z,1003.93
2018-04-02T08:49:23.975Z,1003.94
2018-04-02T08:49:49.483Z,1003.91
2018-04-02T08:50:14.978Z,1003.93
2018-04-02T08:50:40.462Z,1003.95
2018-04-02T08:51:05.974Z,1003.98
2018-04-02T08:51:31.462Z,1003.93
2018-04-02T08:51:56.979Z,1003.93
2018-04-02T08:52:22.458Z,1003.92
2018-04-02T08:52:47.951Z,1003.95
2018-04-02T08:53:13.446Z,1003.94
2018-04-02T08:53:38.929Z,1003.95
2018-04-02T08:54:04.446Z,1003.93
2018-04-02T08:54:29.924Z,1003.91
2018-04-02T08:54:55.444Z,1003.88
2018-04-02T08:55:20.960Z,1003.98
2018-04-02T08:55:46.423Z,1003.92
2018-04-02T08:56:11.946Z,1003.89
2018-04-02T08:56:37.418Z,1003.87
2018-04-02T08:57:02.909Z,1003.96
2018-04-02T08:57:28.432Z,1003.96
2018-04-02T08:57:53.923Z,1003.88
2018-04-02T08:58:19.443Z,1003.9
2018-04-02T08:58:44.882Z,1003.92
2018-04-02T08:59:10.377Z,1003.86
2018-04-02T08:59:35.856Z,1003.86
2018-04-02T09:00:01.359Z,1003.83
2018-04-02T09:00:26.835Z,1003.84
2018-04-02T09:00:52.361Z,1003.8
2018-04-02T09:01:17.838Z,1003.83
2018-04-02T09:01:43.316Z,1003.85
2018-04-02T09:02:08.852Z,1003.8
2018-04-02T09:02:34.344Z,1003.8
2018-04-02T09:02:59.827Z,1003.82
2018-04-02T09:03:25.343Z,1003.81
2018-04-02T09:03:50.870Z,1003.74
2018-04-02T09:04:16.387Z,1003.8
2018-04-02T09:04:41.891Z,1003.78
2018-04-02T09:05:07.383Z,1003.77
2018-04-02T09:05:32.885Z,1003.75
2018-04-02T09:05:58.407Z,1003.77
2018-04-02T09:06:23.891Z,1003.76
2018-04-02T09:06:49.405Z,1003.77
2018-04-02T09:07:14.887Z,1003.72
2018-04-02T09:07:40.401Z,1003.76
2018-04-02T09:08:05.916Z,1003.74
2018-04-02T09:08:31.412Z,1003.74
2018-04-02T09:08:56.869Z,1003.69
2018-04-02T09:10:11.659Z,1003.71
2018-04-02T09:10:37.170Z,1003.72
2018-04-02T09:11:02.633Z,1003.75
2018-04-02T09:11:28.133Z,1003.75
2018-04-02T09:11:53.598Z,1003.71
2018-04-02T09:12:19.089Z,1003.68
2018-04-02T09:12:44.577Z,1003.68
2018-04-02T09:13:10.059Z,1003.71
2018-04-02T09:13:35.601Z,1003.7
2018-04-02T09:14:01.053Z,1003.7
2018-04-02T09:14:26.539Z,1003.71
2018-04-02T09:14:52.049Z,1003.68
2018-04-02T09:15:17.582Z,1003.66
2018-04-02T09:15:43.052Z,1003.65
2018-04-02T09:16:08.544Z,1003.68
2018-04-02T09:16:34.022Z,1003.67
2018-04-02T09:16:59.543Z,1003.63
2018-04-02T09:17:25.057Z,1003.66
2018-04-02T09:17:50.543Z,1003.62
2018-04-02T09:18:16.042Z,1003.61
2018-04-02T09:18:41.518Z,1003.61
2018-04-02T09:19:07.002Z,1003.55
2018-04-02T09:19:32.502Z,1003.58
2018-04-02T09:19:57.973Z,1003.57
2018-04-02T09:20:23.478Z,1003.54
2018-04-02T09:20:48.979Z,1003.56
2018-04-02T09:21:14.473Z,1003.49
2018-04-02T09:21:39.994Z,1003.49